Unbenanntes Dokument
Flugplatz Bielefeld Platzwetter

 

Aktuelles Platzwetter am Flugplatz Bielefeld EDLI

19.01.19 ,07:10 Uhr

METAR EDLI 190710Z 11004KT 9999 ///143 M02/M04 Q1019

 

Windwerte

 

Wolkenuntergrenzen

Wind aktuell:110 ° mit 3 kt
Wind 10 min Extrem:
90 ° bis 120 ° mit 3 kt bis 5 kt
Seitenwindkomponente: -0.2 kt
Wolkengrenze 1: 14300 ft
Wolkengrenze 2:
Wolkengrenze 3:

Webcam

Temperatur

       

Sichtweite:

20.000 Meter

-2.9 °C
Taupunkt: -4.2 °C
Luftfeuchtigkeit: 90 %

Luftdruck:

QNH: 1019 hPa (30.09 in Hg)
QFE: 1003 hPa (29.62 in Hg)

Diese Daten werden automatisch ermittelt bzw. übertragen und sind nicht geprüft. Für die Richtigkeit wird daher keine Gewähr übernommen. Sie ersetzen im übrigen nicht die Flugwetterberatung. Alle Zeitangaben beziehen sich auf UTC. Die Seite wird einmal die Minute aktualisiert! Sollten Sie ein ältere Seite haben, so drücken Sie bitte auf den Reload Button Ihres Browsers!